Time;durP1;ratioP1;P1;durP2;ratioP2;P2;SDS_P1;SDS_P2;PMS_P1;PMS_P2;Temp;Humidity;BMP_temperature;BMP_pressure;BME280_temperature;BME280_humidity;BME280_pressure;Samples;Min_cycle;Max_cycle;Signal;HPM_P1;HPM_P2
2023/11/21 00:01:43;;;;;;;24.08;11.13;;;;;;;;;;4994130;28;20022;-68
2023/11/21 00:04:09;;;;;;;24.77;10.65;;;;;;;;;;4993877;28;20022;-68
2023/11/21 00:06:34;;;;;;;19.95;9.55;;;;;;;;;;4999411;28;20081;-67
2023/11/21 00:09:00;;;;;;;22.25;10.15;;;;;;;;;;5013869;28;20030;-68
2023/11/21 00:11:25;;;;;;;27.65;11.07;;;;;;;;;;5017549;28;20022;-68
2023/11/21 00:13:51;;;;;;;24.85;11.18;;;;;;;;;;5016361;28;20022;-68
2023/11/21 00:16:16;;;;;;;25.98;10.15;;;;;;;;;;5017060;28;20044;-68
2023/11/21 00:18:42;;;;;;;19.60;10.48;;;;;;;;;;5016597;28;20021;-68
2023/11/21 00:21:08;;;;;;;22.10;11.00;;;;;;;;;;5016685;28;20032;-68
2023/11/21 00:23:34;;;;;;;24.27;9.57;;;;;;;;;;5016710;28;20426;-68
2023/11/21 00:25:59;;;;;;;23.50;11.30;;;;;;;;;;5016704;28;20025;-68
2023/11/21 00:28:25;;;;;;;25.10;11.20;;;;;;;;;;5016660;28;20025;-68
2023/11/21 00:30:50;;;;;;;21.00;9.63;;;;;;;;;;5016707;28;20133;-68
2023/11/21 00:33:15;;;;;;;24.17;9.10;;;;;;;;;;5016462;28;20025;-68
2023/11/21 00:35:41;;;;;;;20.92;9.45;;;;;;;;;;5016295;28;20056;-68
2023/11/21 00:38:08;;;;;;;20.13;9.80;;;;;;;;;;5016603;28;20018;-68
2023/11/21 00:40:33;;;;;;;22.85;9.80;;;;;;;;;;5016754;28;20052;-68
2023/11/21 00:42:58;;;;;;;20.63;9.20;;;;;;;;;;5016215;28;20053;-68
2023/11/21 00:45:24;;;;;;;15.70;8.70;;;;;;;;;;5016052;28;20120;-68
2023/11/21 00:47:49;;;;;;;21.98;9.75;;;;;;;;;;5016334;28;20072;-68
2023/11/21 00:50:15;;;;;;;19.90;9.85;;;;;;;;;;5016649;28;20034;-68
2023/11/21 00:52:40;;;;;;;19.05;9.38;;;;;;;;;;5016514;28;20030;-68
2023/11/21 00:55:07;;;;;;;19.73;9.75;;;;;;;;;;5016433;28;20067;-68
2023/11/21 00:57:33;;;;;;;22.92;10.90;;;;;;;;;;5015732;28;20026;-68
2023/11/21 00:59:58;;;;;;;24.00;9.48;;;;;;;;;;5015115;28;20577;-68
2023/11/21 01:02:23;;;;;;;19.23;9.80;;;;;;;;;;5016088;28;20034;-68
2023/11/21 01:04:48;;;;;;;19.60;9.57;;;;;;;;;;5016376;28;20026;-68
2023/11/21 01:07:14;;;;;;;21.08;10.10;;;;;;;;;;5015928;28;20053;-68
2023/11/21 01:09:39;;;;;;;19.98;9.52;;;;;;;;;;5016186;28;20029;-68
2023/11/21 01:12:04;;;;;;;20.92;9.75;;;;;;;;;;5015741;28;20072;-68
2023/11/21 01:14:30;;;;;;;19.23;10.57;;;;;;;;;;5016258;28;20042;-68
2023/11/21 01:16:55;;;;;;;18.40;8.38;;;;;;;;;;5015896;28;20394;-68
2023/11/21 01:19:20;;;;;;;16.88;9.07;;;;;;;;;;5014963;28;20100;-68
2023/11/21 01:21:46;;;;;;;22.42;9.75;;;;;;;;;;5015429;28;20036;-68
2023/11/21 01:24:11;;;;;;;23.60;11.65;;;;;;;;;;5015852;28;20022;-68
2023/11/21 01:26:36;;;;;;;23.60;11.77;;;;;;;;;;5015388;28;20467;-68
2023/11/21 01:29:01;;;;;;;24.50;10.48;;;;;;;;;;5015825;28;20026;-68
2023/11/21 01:31:29;;;;;;;18.77;9.18;;;;;;;;;;5015561;28;20029;-68
2023/11/21 01:33:55;;;;;;;15.55;7.50;;;;;;;;;;5015209;28;20407;-68
2023/11/21 01:36:21;;;;;;;22.83;9.68;;;;;;;;;;5015269;28;20022;-68
2023/11/21 01:38:47;;;;;;;19.02;9.38;;;;;;;;;;5014743;28;20029;-68
2023/11/21 01:41:13;;;;;;;19.40;8.00;;;;;;;;;;5015610;28;20018;-68
2023/11/21 01:43:38;;;;;;;21.10;8.70;;;;;;;;;;5015359;28;20081;-68
2023/11/21 01:46:06;;;;;;;17.85;9.30;;;;;;;;;;5015965;28;20029;-68
2023/11/21 01:48:32;;;;;;;19.35;9.43;;;;;;;;;;5013818;28;20018;-68
2023/11/21 01:50:58;;;;;;;20.40;9.15;;;;;;;;;;5014233;28;20025;-68
2023/11/21 01:53:25;;;;;;;22.52;8.98;;;;;;;;;;5015347;28;20026;-68
2023/11/21 01:55:51;;;;;;;20.42;9.40;;;;;;;;;;5015050;28;20034;-68
2023/11/21 01:58:16;;;;;;;24.17;9.82;;;;;;;;;;5013213;28;20080;-68
2023/11/21 02:00:42;;;;;;;19.48;9.52;;;;;;;;;;5015304;28;20064;-68
2023/11/21 02:03:07;;;;;;;21.05;8.93;;;;;;;;;;5014741;28;20049;-68
2023/11/21 02:05:32;;;;;;;21.17;10.43;;;;;;;;;;5014030;28;20051;-68
2023/11/21 02:07:58;;;;;;;22.33;9.15;;;;;;;;;;5015001;28;20067;-68
2023/11/21 02:10:23;;;;;;;19.55;8.98;;;;;;;;;;5014814;28;20105;-68
2023/11/21 02:12:52;;;;;;;17.90;8.93;;;;;;;;;;5013381;28;20018;-68
2023/11/21 02:15:21;;;;;;;17.25;9.43;;;;;;;;;;5014477;28;20026;-68
2023/11/21 02:17:49;;;;;;;20.58;9.30;;;;;;;;;;5014975;28;20056;-68
2023/11/21 02:20:15;;;;;;;19.77;8.00;;;;;;;;;;5014670;28;20394;-68
2023/11/21 02:22:41;;;;;;;21.27;9.15;;;;;;;;;;5014553;28;20029;-68
2023/11/21 02:25:07;;;;;;;25.13;10.40;;;;;;;;;;5014619;28;20105;-67
2023/11/21 02:27:33;;;;;;;21.75;10.10;;;;;;;;;;5014204;28;20053;-68
2023/11/21 02:29:59;;;;;;;19.20;9.40;;;;;;;;;;5013970;28;20106;-68
2023/11/21 02:32:25;;;;;;;20.13;8.77;;;;;;;;;;5013636;28;20116;-67
2023/11/21 02:34:51;;;;;;;16.60;9.30;;;;;;;;;;5014590;28;20022;-68
2023/11/21 02:37:16;;;;;;;25.90;11.77;;;;;;;;;;5012611;28;20074;-68
2023/11/21 02:39:41;;;;;;;19.90;8.63;;;;;;;;;;5014911;28;20037;-68
2023/11/21 02:42:07;;;;;;;19.13;8.50;;;;;;;;;;5013596;28;20080;-68
2023/11/21 02:44:32;;;;;;;20.83;10.68;;;;;;;;;;5014035;28;20053;-68
2023/11/21 02:46:57;;;;;;;21.90;9.30;;;;;;;;;;5014595;28;20025;-68
2023/11/21 02:49:23;;;;;;;21.08;9.85;;;;;;;;;;5014466;28;20029;-67
2023/11/21 02:51:48;;;;;;;23.63;9.60;;;;;;;;;;5013514;28;20032;-68
2023/11/21 02:54:13;;;;;;;19.13;8.50;;;;;;;;;;5014032;28;20391;-68
2023/11/21 02:56:39;;;;;;;20.65;9.73;;;;;;;;;;5013983;28;20072;-68
2023/11/21 02:59:05;;;;;;;23.30;9.98;;;;;;;;;;5013691;28;20522;-68
2023/11/21 03:01:30;;;;;;;21.85;10.00;;;;;;;;;;5014018;28;20061;-68
2023/11/21 03:03:56;;;;;;;19.50;9.20;;;;;;;;;;5013118;28;20049;-68
2023/11/21 03:06:22;;;;;;;22.83;9.77;;;;;;;;;;5013832;28;20029;-68
2023/11/21 03:08:47;;;;;;;18.52;9.23;;;;;;;;;;5012889;28;20022;-68
2023/11/21 03:11:13;;;;;;;23.27;9.50;;;;;;;;;;5013742;28;20017;-68
2023/11/21 03:13:42;;;;;;;17.00;7.60;;;;;;;;;;5012147;28;20026;-68
2023/11/21 03:16:11;;;;;;;16.17;7.63;;;;;;;;;;5012854;28;20076;-68
2023/11/21 03:18:37;;;;;;;17.42;8.98;;;;;;;;;;5013599;28;20022;-67
2023/11/21 03:21:04;;;;;;;16.48;7.60;;;;;;;;;;5012506;28;20379;-68
2023/11/21 03:23:29;;;;;;;16.38;7.80;;;;;;;;;;5013621;28;20025;-67
2023/11/21 03:25:55;;;;;;;20.55;8.43;;;;;;;;;;5013588;28;20064;-68
2023/11/21 03:28:20;;;;;;;16.80;7.97;;;;;;;;;;5013429;28;20475;-68
2023/11/21 03:30:45;;;;;;;18.80;7.53;;;;;;;;;;5013157;28;20018;-68
2023/11/21 03:33:11;;;;;;;18.02;7.60;;;;;;;;;;5013244;28;20399;-68
2023/11/21 03:35:36;;;;;;;21.30;7.85;;;;;;;;;;5013493;28;20033;-68
2023/11/21 03:38:01;;;;;;;17.25;9.18;;;;;;;;;;5013293;28;20113;-68
2023/11/21 03:40:27;;;;;;;16.27;7.55;;;;;;;;;;5013041;28;20105;-68
2023/11/21 03:42:52;;;;;;;16.27;8.10;;;;;;;;;;5013156;28;20032;-68
2023/11/21 03:45:17;;;;;;;18.63;7.97;;;;;;;;;;5013541;28;20056;-68
2023/11/21 03:47:43;;;;;;;14.23;8.00;;;;;;;;;;5013293;28;20108;-67
2023/11/21 03:50:11;;;;;;;18.67;9.07;;;;;;;;;;5013453;28;20104;-68
2023/11/21 03:52:37;;;;;;;15.90;8.40;;;;;;;;;;5013042;28;20115;-68
2023/11/21 03:55:02;;;;;;;19.48;8.18;;;;;;;;;;5013617;28;20030;-67
2023/11/21 03:57:28;;;;;;;17.13;7.63;;;;;;;;;;5013629;28;20026;-68
2023/11/21 03:59:53;;;;;;;16.13;8.52;;;;;;;;;;5012859;28;20043;-68
2023/11/21 04:02:18;;;;;;;15.18;8.98;;;;;;;;;;5013017;28;20094;-68
2023/11/21 04:04:44;;;;;;;16.98;6.43;;;;;;;;;;5012912;28;20391;-68
2023/11/21 04:07:09;;;;;;;17.65;7.82;;;;;;;;;;5013685;28;20076;-68
2023/11/21 04:09:36;;;;;;;12.77;6.30;;;;;;;;;;5013386;28;20407;-67
2023/11/21 04:12:01;;;;;;;17.55;7.97;;;;;;;;;;5013131;28;20032;-68
2023/11/21 04:14:26;;;;;;;16.90;7.90;;;;;;;;;;5012516;28;20025;-68
2023/11/21 04:16:53;;;;;;;14.00;7.38;;;;;;;;;;5013125;28;20479;-68
2023/11/21 04:19:18;;;;;;;14.68;8.30;;;;;;;;;;5012876;28;20022;-68
2023/11/21 04:21:44;;;;;;;21.48;8.85;;;;;;;;;;5013132;28;20033;-68
2023/11/21 04:24:10;;;;;;;18.55;7.95;;;;;;;;;;5013386;28;20022;-68
2023/11/21 04:26:35;;;;;;;15.05;8.40;;;;;;;;;;5013125;28;20052;-68
2023/11/21 04:29:00;;;;;;;20.02;8.98;;;;;;;;;;5011267;28;20022;-67
2023/11/21 04:31:26;;;;;;;18.70;8.55;;;;;;;;;;5013293;28;20125;-68
2023/11/21 04:33:51;;;;;;;12.88;6.78;;;;;;;;;;5012817;28;20401;-68
2023/11/21 04:36:16;;;;;;;19.15;9.02;;;;;;;;;;5013041;28;20026;-67
2023/11/21 04:38:41;;;;;;;17.55;8.30;;;;;;;;;;5012487;28;20030;-68
2023/11/21 04:41:07;;;;;;;18.85;8.07;;;;;;;;;;5013505;28;20026;-68
2023/11/21 04:43:33;;;;;;;14.25;7.35;;;;;;;;;;5012595;28;20548;-68
2023/11/21 04:45:58;;;;;;;17.58;8.15;;;;;;;;;;5013114;28;20033;-68
2023/11/21 04:48:23;;;;;;;16.95;8.32;;;;;;;;;;5012651;28;20014;-68
2023/11/21 04:50:49;;;;;;;19.85;8.45;;;;;;;;;;5012644;28;20033;-68
2023/11/21 04:53:14;;;;;;;16.55;7.63;;;;;;;;;;5012698;28;20029;-68
2023/11/21 04:55:40;;;;;;;14.02;7.40;;;;;;;;;;5014256;28;20026;-68
2023/11/21 04:58:05;;;;;;;13.18;7.28;;;;;;;;;;5016179;28;20471;-67
2023/11/21 05:00:31;;;;;;;14.80;6.93;;;;;;;;;;5015779;28;20032;-67
2023/11/21 05:02:56;;;;;;;17.52;7.05;;;;;;;;;;5016183;28;20036;-67
2023/11/21 05:05:22;;;;;;;15.82;7.53;;;;;;;;;;5016135;28;20026;-68
2023/11/21 05:07:48;;;;;;;15.07;7.72;;;;;;;;;;5016068;28;20048;-68
2023/11/21 05:10:14;;;;;;;14.05;7.70;;;;;;;;;;5016420;28;20021;-68
2023/11/21 05:12:41;;;;;;;20.80;8.30;;;;;;;;;;5015765;28;20025;-67
2023/11/21 05:15:10;;;;;;;15.32;8.13;;;;;;;;;;5014783;28;20049;-68
2023/11/21 05:17:37;;;;;;;18.73;8.02;;;;;;;;;;5015918;28;20057;-68
2023/11/21 05:20:04;;;;;;;13.82;6.88;;;;;;;;;;5016089;28;20064;-68
2023/11/21 05:22:30;;;;;;;14.52;7.35;;;;;;;;;;5015924;28;20094;-68
2023/11/21 05:24:55;;;;;;;13.45;7.25;;;;;;;;;;5015982;28;20030;-68
2023/11/21 05:27:20;;;;;;;14.30;6.82;;;;;;;;;;5015317;28;20105;-68
2023/11/21 05:29:46;;;;;;;16.55;7.00;;;;;;;;;;5015713;28;20022;-68
2023/11/21 05:32:11;;;;;;;13.75;7.00;;;;;;;;;;5015604;28;20045;-68
2023/11/21 05:34:36;;;;;;;16.05;7.13;;;;;;;;;;5107350;23;20056;-68
2023/11/21 05:37:01;;;;;;;11.95;7.03;;;;;;;;;;5035307;28;20028;-68
2023/11/21 05:39:27;;;;;;;12.77;6.47;;;;;;;;;;5050581;28;20181;-68
2023/11/21 05:41:53;;;;;;;15.70;7.38;;;;;;;;;;5035289;28;20045;-68
2023/11/21 05:44:18;;;;;;;11.63;7.05;;;;;;;;;;5033862;28;20021;-68
2023/11/21 05:46:44;;;;;;;13.00;5.95;;;;;;;;;;5034628;28;20445;-68
2023/11/21 05:49:09;;;;;;;16.88;7.10;;;;;;;;;;5035117;28;20026;-68
2023/11/21 05:51:34;;;;;;;14.77;7.57;;;;;;;;;;5035129;28;20029;-68
2023/11/21 05:53:59;;;;;;;13.90;7.30;;;;;;;;;;5033797;28;20061;-68
2023/11/21 05:56:25;;;;;;;11.73;6.63;;;;;;;;;;5034577;28;20493;-68
2023/11/21 05:58:51;;;;;;;15.30;6.95;;;;;;;;;;5034776;28;20021;-68
2023/11/21 06:01:16;;;;;;;15.68;7.65;;;;;;;;;;5034954;28;20021;-68
2023/11/21 06:03:41;;;;;;;19.80;7.60;;;;;;;;;;5034815;28;20021;-68
2023/11/21 06:06:07;;;;;;;15.20;6.43;;;;;;;;;;5034497;28;20398;-68
2023/11/21 06:08:32;;;;;;;14.82;7.32;;;;;;;;;;5034155;28;20104;-68
2023/11/21 06:10:57;;;;;;;16.48;6.97;;;;;;;;;;5034673;28;20033;-68
2023/11/21 06:13:24;;;;;;;16.40;7.80;;;;;;;;;;5034595;28;20028;-68
2023/11/21 06:15:50;;;;;;;14.55;6.88;;;;;;;;;;5034344;28;20024;-68
2023/11/21 06:18:16;;;;;;;13.52;8.02;;;;;;;;;;5034485;28;20030;-68
2023/11/21 06:20:41;;;;;;;13.65;6.82;;;;;;;;;;5034641;28;20040;-68
2023/11/21 06:23:06;;;;;;;16.35;7.47;;;;;;;;;;5034596;28;20030;-68
2023/11/21 06:25:35;;;;;;;14.57;6.20;;;;;;;;;;5034430;28;20104;-68
2023/11/21 06:28:01;;;;;;;16.30;6.80;;;;;;;;;;5034506;28;20053;-68
2023/11/21 06:30:27;;;;;;;20.08;8.50;;;;;;;;;;5034094;28;20056;-68
2023/11/21 06:32:52;;;;;;;15.30;6.85;;;;;;;;;;5034259;28;20017;-68
2023/11/21 06:35:18;;;;;;;15.27;7.75;;;;;;;;;;5034450;28;20104;-68
2023/11/21 06:37:47;;;;;;;14.45;7.60;;;;;;;;;;5032884;28;20053;-68
2023/11/21 06:40:14;;;;;;;15.60;7.43;;;;;;;;;;5033051;28;20035;-68
2023/11/21 06:42:40;;;;;;;15.73;8.02;;;;;;;;;;5034122;28;20079;-68
2023/11/21 06:45:06;;;;;;;14.45;6.63;;;;;;;;;;5033707;28;20025;-68
2023/11/21 06:47:32;;;;;;;13.48;6.47;;;;;;;;;;5033909;28;20414;-68
2023/11/21 06:49:59;;;;;;;12.15;7.05;;;;;;;;;;5033960;28;20024;-68
2023/11/21 06:52:24;;;;;;;13.20;7.78;;;;;;;;;;5034048;28;20035;-68
2023/11/21 06:54:50;;;;;;;17.00;8.88;;;;;;;;;;5032411;28;20021;-68
2023/11/21 06:57:15;;;;;;;15.35;7.35;;;;;;;;;;5033046;28;20536;-68
2023/11/21 06:59:41;;;;;;;21.13;9.63;;;;;;;;;;5033627;28;20029;-68
2023/11/21 07:02:06;;;;;;;18.48;8.98;;;;;;;;;;5032452;28;20582;-68
2023/11/21 07:04:33;;;;;;;15.07;7.50;;;;;;;;;;5033465;28;20246;-68
2023/11/21 07:06:58;;;;;;;17.20;8.20;;;;;;;;;;5032655;28;20052;-68
2023/11/21 07:09:25;;;;;;;13.55;7.75;;;;;;;;;;5032827;28;20013;-68
2023/11/21 07:11:51;;;;;;;15.90;6.82;;;;;;;;;;5032564;28;20496;-68
2023/11/21 07:14:19;;;;;;;15.25;7.75;;;;;;;;;;5033004;28;20112;-68
2023/11/21 07:16:45;;;;;;;15.93;7.25;;;;;;;;;;5033584;28;20025;-68
2023/11/21 07:19:11;;;;;;;15.20;7.97;;;;;;;;;;5031230;28;20032;-68
2023/11/21 07:21:37;;;;;;;14.07;7.30;;;;;;;;;;5033173;28;20159;-68
2023/11/21 07:24:03;;;;;;;17.60;8.73;;;;;;;;;;5032049;28;20079;-68
2023/11/21 07:26:29;;;;;;;15.00;8.43;;;;;;;;;;5033123;28;20018;-68
2023/11/21 07:28:55;;;;;;;16.67;8.32;;;;;;;;;;5031654;28;20024;-68
2023/11/21 07:31:20;;;;;;;17.70;7.85;;;;;;;;;;5031521;28;20021;-68
2023/11/21 07:33:47;;;;;;;16.92;8.30;;;;;;;;;;5014869;28;20044;-68
2023/11/21 07:36:12;;;;;;;15.75;7.78;;;;;;;;;;5031646;28;20495;-68
2023/11/21 07:38:38;;;;;;;16.27;8.32;;;;;;;;;;5031548;28;20053;-68
2023/11/21 07:41:03;;;;;;;14.60;8.32;;;;;;;;;;5033263;28;20113;-68
2023/11/21 07:43:34;;;;;;;15.88;8.23;;;;;;;;;;5032347;28;20068;-68
2023/11/21 07:46:00;;;;;;;17.35;9.20;;;;;;;;;;5032737;28;20064;-68
2023/11/21 07:48:26;;;;;;;12.15;6.32;;;;;;;;;;5020346;28;20391;-68
2023/11/21 07:50:51;;;;;;;14.85;8.20;;;;;;;;;;5031069;28;20040;-68
2023/11/21 07:53:16;;;;;;;13.50;7.28;;;;;;;;;;5032188;28;20449;-68
2023/11/21 07:55:42;;;;;;;16.05;8.93;;;;;;;;;;5022570;28;20022;-68
2023/11/21 07:58:07;;;;;;;17.50;8.73;;;;;;;;;;5012861;28;20025;-68
2023/11/21 08:00:33;;;;;;;17.17;7.40;;;;;;;;;;5013083;28;20026;-68
2023/11/21 08:02:58;;;;;;;20.10;8.75;;;;;;;;;;5032199;28;20025;-68
2023/11/21 08:05:24;;;;;;;19.33;8.68;;;;;;;;;;5031183;28;20021;-68
2023/11/21 08:07:49;;;;;;;19.90;8.10;;;;;;;;;;5032622;28;20029;-68
2023/11/21 08:10:16;;;;;;;17.17;8.05;;;;;;;;;;5015019;28;20492;-68
2023/11/21 08:12:42;;;;;;;17.52;7.70;;;;;;;;;;5032704;28;20518;-68
2023/11/21 08:15:08;;;;;;;19.50;8.88;;;;;;;;;;5032511;28;20040;-68
2023/11/21 08:17:35;;;;;;;15.82;8.48;;;;;;;;;;5030375;28;20167;-68
2023/11/21 08:20:00;;;;;;;15.07;7.82;;;;;;;;;;5018771;28;20022;-68
2023/11/21 08:22:25;;;;;;;23.58;8.90;;;;;;;;;;5012937;28;20165;-68
2023/11/21 08:24:50;;;;;;;22.00;10.05;;;;;;;;;;5012880;28;20022;-68
2023/11/21 08:27:16;;;;;;;17.35;8.23;;;;;;;;;;5012718;28;20536;-68
2023/11/21 08:29:42;;;;;;;15.63;7.93;;;;;;;;;;5022385;28;20075;-68
2023/11/21 08:32:07;;;;;;;17.67;9.20;;;;;;;;;;5035633;28;20025;-68
2023/11/21 08:34:33;;;;;;;13.93;7.78;;;;;;;;;;5035742;28;20041;-67
2023/11/21 08:36:58;;;;;;;21.67;9.15;;;;;;;;;;5036325;28;20048;-68
2023/11/21 08:39:24;;;;;;;18.27;8.77;;;;;;;;;;5036304;28;20021;-68
2023/11/21 08:41:50;;;;;;;20.45;10.80;;;;;;;;;;5034432;28;20501;-68
2023/11/21 08:44:17;;;;;;;14.98;8.38;;;;;;;;;;5034612;28;20026;-68
2023/11/21 08:46:44;;;;;;;16.73;8.75;;;;;;;;;;5036173;28;20495;-68
2023/11/21 08:49:11;;;;;;;16.55;7.82;;;;;;;;;;5034831;28;20032;-68
2023/11/21 08:51:36;;;;;;;17.83;8.73;;;;;;;;;;5034815;28;20029;-68
2023/11/21 08:54:07;;;;;;;16.55;9.45;;;;;;;;;;5035101;28;20510;-68
2023/11/21 08:56:32;;;;;;;15.90;7.85;;;;;;;;;;5034493;28;20049;-68
2023/11/21 08:59:00;;;;;;;16.75;8.73;;;;;;;;;;5035667;28;20060;-68
2023/11/21 09:01:25;;;;;;;18.95;8.30;;;;;;;;;;5035854;28;20064;-68
2023/11/21 09:03:51;;;;;;;17.83;8.85;;;;;;;;;;5034954;28;20470;-68
2023/11/21 09:06:16;;;;;;;21.02;9.82;;;;;;;;;;5035705;28;20040;-68
2023/11/21 09:08:42;;;;;;;20.05;9.18;;;;;;;;;;5035677;28;20071;-68
2023/11/21 09:11:08;;;;;;;19.50;9.55;;;;;;;;;;5036095;28;20033;-68
2023/11/21 09:13:33;;;;;;;18.92;9.13;;;;;;;;;;5035443;28;20033;-68
2023/11/21 09:15:58;;;;;;;18.92;8.43;;;;;;;;;;5035687;28;20033;-68
2023/11/21 09:18:24;;;;;;;20.30;8.55;;;;;;;;;;5034729;28;20036;-68
2023/11/21 09:20:49;;;;;;;20.70;9.55;;;;;;;;;;5034000;28;20029;-68
2023/11/21 09:23:14;;;;;;;21.02;9.27;;;;;;;;;;5035693;28;20104;-68
2023/11/21 09:25:40;;;;;;;19.73;8.95;;;;;;;;;;5035360;28;20032;-68
2023/11/21 09:28:07;;;;;;;20.67;9.43;;;;;;;;;;5035713;28;20036;-68
2023/11/21 09:30:36;;;;;;;17.73;9.45;;;;;;;;;;5035267;28;20018;-68
2023/11/21 09:33:02;;;;;;;15.65;7.93;;;;;;;;;;5034284;28;20025;-67
2023/11/21 09:35:27;;;;;;;14.02;8.07;;;;;;;;;;5033921;28;20068;-67
2023/11/21 09:37:53;;;;;;;15.30;8.50;;;;;;;;;;5035050;28;20049;-67
2023/11/21 09:40:22;;;;;;;16.58;8.75;;;;;;;;;;5024378;28;20052;-67
2023/11/21 09:42:56;;;;;;;14.38;8.48;;;;;;;;;;5027329;28;20516;-67
2023/11/21 09:45:26;;;;;;;16.85;8.90;;;;;;;;;;5034551;28;20029;-67
2023/11/21 09:47:54;;;;;;;19.08;9.40;;;;;;;;;;5033515;28;20029;-67
2023/11/21 09:50:21;;;;;;;17.92;8.98;;;;;;;;;;5033406;28;20018;-67
2023/11/21 09:53:14;;;;;;;16.08;8.32;;;;;;;;;;5033326;28;20104;-67
2023/11/21 09:55:42;;;;;;;16.88;8.82;;;;;;;;;;5014953;28;20022;-67
2023/11/21 09:58:07;;;;;;;16.00;9.57;;;;;;;;;;5013243;28;20030;-67
2023/11/21 10:00:35;;;;;;;21.35;9.77;;;;;;;;;;5031807;28;20068;-67
2023/11/21 10:03:01;;;;;;;17.92;8.73;;;;;;;;;;5033114;28;20116;-67
2023/11/21 10:05:28;;;;;;;16.25;8.00;;;;;;;;;;5033238;28;20033;-67
2023/11/21 10:07:57;;;;;;;17.35;7.78;;;;;;;;;;5033991;28;20083;-67
2023/11/21 10:10:23;;;;;;;21.33;10.15;;;;;;;;;;5033767;28;20068;-68
2023/11/21 10:12:53;;;;;;;12.77;7.35;;;;;;;;;;5033086;28;20032;-67
2023/11/21 10:15:21;;;;;;;16.40;8.10;;;;;;;;;;5033759;28;20112;-68
2023/11/21 10:17:49;;;;;;;14.10;8.07;;;;;;;;;;5032708;28;20025;-68
2023/11/21 10:20:14;;;;;;;15.43;8.25;;;;;;;;;;5029930;28;20220;-68
2023/11/21 10:22:41;;;;;;;16.50;8.10;;;;;;;;;;5019706;28;20390;-67
2023/11/21 10:25:08;;;;;;;17.40;7.40;;;;;;;;;;5033039;28;20505;-67
2023/11/21 10:27:34;;;;;;;14.82;8.30;;;;;;;;;;5033237;28;20025;-68
2023/11/21 10:30:03;;;;;;;11.75;7.57;;;;;;;;;;5034301;28;20071;-68
2023/11/21 10:32:28;;;;;;;13.93;8.70;;;;;;;;;;5032410;28;20560;-68
2023/11/21 10:34:57;;;;;;;14.68;7.55;;;;;;;;;;5033807;28;20069;-68
2023/11/21 10:37:23;;;;;;;13.82;7.28;;;;;;;;;;5033855;28;20092;-68
2023/11/21 10:39:48;;;;;;;12.68;7.55;;;;;;;;;;5033431;28;20025;-68
2023/11/21 10:42:13;;;;;;;11.88;7.35;;;;;;;;;;5025163;28;20025;-68
2023/11/21 10:44:41;;;;;;;12.18;6.45;;;;;;;;;;5013018;28;20033;-68
2023/11/21 10:47:08;;;;;;;8.88;6.47;;;;;;;;;;5012983;28;20025;-68
2023/11/21 10:49:33;;;;;;;14.75;6.15;;;;;;;;;;5031027;28;20132;-68
2023/11/21 10:51:59;;;;;;;10.60;5.80;;;;;;;;;;5033423;28;20026;-68
2023/11/21 10:54:25;;;;;;;12.82;6.13;;;;;;;;;;5015348;28;20426;-68
2023/11/21 10:57:01;;;;;;;15.20;7.22;;;;;;;;;;5032207;28;20443;-68
2023/11/21 10:59:30;;;;;;;13.82;6.72;;;;;;;;;;5031346;28;20557;-68
2023/11/21 11:01:57;;;;;;;10.32;7.25;;;;;;;;;;5033714;28;20109;-68
2023/11/21 11:04:24;;;;;;;12.07;7.07;;;;;;;;;;5031828;28;20479;-68
2023/11/21 11:06:54;;;;;;;13.75;7.55;;;;;;;;;;5032104;28;20021;-68
2023/11/21 11:09:20;;;;;;;11.00;7.15;;;;;;;;;;5033595;28;20051;-68
2023/11/21 11:11:46;;;;;;;9.70;6.88;;;;;;;;;;5031965;28;20065;-68
2023/11/21 11:14:12;;;;;;;13.82;7.38;;;;;;;;;;5031415;28;20544;-68
2023/11/21 11:16:40;;;;;;;12.45;7.50;;;;;;;;;;5033488;28;20029;-68
2023/11/21 11:19:06;;;;;;;14.13;7.43;;;;;;;;;;5020712;28;20025;-67
2023/11/21 11:21:51;;;;;;;12.52;7.38;;;;;;;;;;5026181;28;20090;-67
2023/11/21 11:24:43;;;;;;;16.88;6.95;;;;;;;;;;5018471;28;20029;-67
2023/11/21 11:27:33;;;;;;;11.43;6.40;;;;;;;;;;5029169;28;20116;-67
2023/11/21 11:30:10;;;;;;;14.20;7.13;;;;;;;;;;5025495;28;20060;-67
2023/11/21 11:32:57;;;;;;;12.45;6.53;;;;;;;;;;5028059;28;20061;-67
2023/11/21 11:35:28;;;;;;;12.07;6.57;;;;;;;;;;5015994;28;20108;-67
2023/11/21 11:37:54;;;;;;;13.68;6.93;;;;;;;;;;5022487;28;20022;-67
2023/11/21 11:40:19;;;;;;;12.90;6.47;;;;;;;;;;5025038;28;20032;-67
2023/11/21 11:43:02;;;;;;;11.40;6.05;;;;;;;;;;5030691;28;20033;-67
2023/11/21 11:45:33;;;;;;;12.55;6.90;;;;;;;;;;5022018;28;20030;-67
2023/11/21 11:47:59;;;;;;;12.30;6.85;;;;;;;;;;5020098;28;20022;-67
2023/11/21 11:50:26;;;;;;;13.95;6.88;;;;;;;;;;5029587;28;20064;-67
2023/11/21 11:52:54;;;;;;;13.38;6.50;;;;;;;;;;5029206;28;20445;-67
2023/11/21 11:55:24;;;;;;;13.02;8.07;;;;;;;;;;5026662;28;20025;-67
2023/11/21 11:57:51;;;;;;;12.27;7.32;;;;;;;;;;5028665;28;20036;-67
2023/11/21 12:00:21;;;;;;;9.90;6.53;;;;;;;;;;5027161;28;20034;-68
2023/11/21 12:02:51;;;;;;;10.10;6.03;;;;;;;;;;5030222;28;20064;-68
2023/11/21 12:05:18;;;;;;;10.30;6.13;;;;;;;;;;5020648;28;20487;-68
2023/11/21 12:07:57;;;;;;;13.43;6.90;;;;;;;;;;5028388;28;20022;-67
2023/11/21 12:10:27;;;;;;;16.60;6.40;;;;;;;;;;5030733;28;20022;-68
2023/11/21 12:13:07;;;;;;;11.23;6.75;;;;;;;;;;5035739;28;20017;-68
2023/11/21 12:15:33;;;;;;;11.75;6.32;;;;;;;;;;5033525;28;20022;-67
2023/11/21 12:18:01;;;;;;;10.63;6.22;;;;;;;;;;5025120;28;20475;-68
2023/11/21 12:20:27;;;;;;;14.07;6.80;;;;;;;;;;5035947;28;20021;-68
2023/11/21 12:22:53;;;;;;;10.82;7.28;;;;;;;;;;5026493;28;20104;-68
2023/11/21 12:25:21;;;;;;;9.88;6.55;;;;;;;;;;5032022;28;20481;-68
2023/11/21 12:27:49;;;;;;;10.93;6.45;;;;;;;;;;5036582;28;20053;-68
2023/11/21 12:30:16;;;;;;;8.82;6.50;;;;;;;;;;5034953;28;20134;-68
2023/11/21 12:32:43;;;;;;;11.88;6.43;;;;;;;;;;5036514;28;20030;-68
2023/11/21 12:35:10;;;;;;;11.48;5.88;;;;;;;;;;5035384;28;20025;-68
2023/11/21 12:37:37;;;;;;;9.73;6.50;;;;;;;;;;5035087;28;20082;-68
2023/11/21 12:40:04;;;;;;;9.35;6.82;;;;;;;;;;5036557;28;20029;-68
2023/11/21 12:42:30;;;;;;;11.93;6.43;;;;;;;;;;5029918;28;20022;-68
2023/11/21 12:45:17;;;;;;;12.68;6.47;;;;;;;;;;5024167;28;20394;-68
2023/11/21 12:48:07;;;;;;;13.68;7.47;;;;;;;;;;5032602;28;20104;-67
2023/11/21 12:50:33;;;;;;;13.07;8.25;;;;;;;;;;5031021;28;20018;-68
2023/11/21 12:53:08;;;;;;;14.30;7.75;;;;;;;;;;5016521;28;20026;-68
2023/11/21 12:55:37;;;;;;;10.25;6.38;;;;;;;;;;5019532;28;20018;-68
2023/11/21 12:58:08;;;;;;;12.23;7.22;;;;;;;;;;5034702;28;20525;-68
2023/11/21 13:00:39;;;;;;;13.73;7.68;;;;;;;;;;5016544;28;20037;-67
2023/11/21 13:03:07;;;;;;;13.60;7.45;;;;;;;;;;5015511;28;20029;-68
2023/11/21 13:05:34;;;;;;;13.52;7.93;;;;;;;;;;5029762;28;20101;-67
2023/11/21 13:08:02;;;;;;;13.27;6.82;;;;;;;;;;5034889;28;20032;-67
2023/11/21 13:10:30;;;;;;;15.95;8.15;;;;;;;;;;5035041;28;20025;-67
2023/11/21 13:13:00;;;;;;;12.70;6.28;;;;;;;;;;5034712;28;20025;-68
2023/11/21 13:15:27;;;;;;;10.02;6.35;;;;;;;;;;5035419;28;20025;-68
2023/11/21 13:17:53;;;;;;;16.58;8.05;;;;;;;;;;5015890;28;20117;-68
2023/11/21 13:20:20;;;;;;;13.00;7.40;;;;;;;;;;5015087;28;20105;-68
2023/11/21 13:22:59;;;;;;;14.60;6.57;;;;;;;;;;5030063;28;20083;-68
2023/11/21 13:25:28;;;;;;;13.02;6.93;;;;;;;;;;5034538;28;20108;-68
2023/11/21 13:28:00;;;;;;;14.07;6.97;;;;;;;;;;5035599;28;20076;-68
2023/11/21 13:30:33;;;;;;;13.80;7.15;;;;;;;;;;5035753;28;20029;-68
2023/11/21 13:33:01;;;;;;;12.18;7.38;;;;;;;;;;5035109;28;20193;-68
2023/11/21 13:35:37;;;;;;;13.75;7.60;;;;;;;;;;5034087;28;20022;-68
2023/11/21 13:38:06;;;;;;;10.63;5.05;;;;;;;;;;5034556;28;20031;-68
2023/11/21 13:40:34;;;;;;;10.70;6.25;;;;;;;;;;5035348;28;20021;-67
2023/11/21 13:42:59;;;;;;;10.48;6.00;;;;;;;;;;5034340;28;20604;-68
2023/11/21 13:45:27;;;;;;;8.93;6.05;;;;;;;;;;5034093;28;20029;-68
2023/11/21 13:47:57;;;;;;;10.20;6.25;;;;;;;;;;5035147;28;20032;-68
2023/11/21 13:50:25;;;;;;;10.05;5.78;;;;;;;;;;5035647;28;20033;-67
2023/11/21 13:52:53;;;;;;;13.48;5.28;;;;;;;;;;5033156;28;20389;-67
2023/11/21 13:55:18;;;;;;;12.55;6.97;;;;;;;;;;5035217;28;20026;-67
2023/11/21 13:57:46;;;;;;;11.88;7.05;;;;;;;;;;5016522;28;20121;-68
2023/11/21 14:00:38;;;;;;;13.48;7.13;;;;;;;;;;5015444;28;20017;-68
2023/11/21 14:03:00;;;;;;;12.77;6.22;;;;;;;;;;5015286;28;20442;-68
2023/11/21 14:05:29;;;;;;;15.68;7.05;;;;;;;;;;5014627;28;20100;-67
2023/11/21 14:08:03;;;;;;;12.73;6.00;;;;;;;;;;5016738;28;20479;-68
2023/11/21 14:10:39;;;;;;;13.07;7.10;;;;;;;;;;5035364;28;20367;-68
2023/11/21 14:13:05;;;;;;;12.18;7.50;;;;;;;;;;5035238;28;20108;-68
2023/11/21 14:15:32;;;;;;;10.48;6.35;;;;;;;;;;5035339;28;20517;-68
2023/11/21 14:17:59;;;;;;;11.93;6.60;;;;;;;;;;5033109;28;20379;-68
2023/11/21 14:20:25;;;;;;;13.07;7.25;;;;;;;;;;5034701;28;20032;-67
2023/11/21 14:22:50;;;;;;;16.00;6.25;;;;;;;;;;5034923;28;20017;-67
2023/11/21 14:25:17;;;;;;;12.57;6.95;;;;;;;;;;5034196;28;20033;-67
2023/11/21 14:27:42;;;;;;;10.35;6.40;;;;;;;;;;5033209;28;20029;-67